createdAt,value
2018-11-22T00:05:15.413Z,87.62
2018-11-22T00:08:05.671Z,87.52
2018-11-22T00:10:55.931Z,88.17
2018-11-22T00:13:46.187Z,87.02
2018-11-22T00:16:36.444Z,87.05
2018-11-22T00:19:26.702Z,87.85
2018-11-22T00:21:57.373Z,87.90
2018-11-22T00:24:47.621Z,87.91
2018-11-22T00:27:37.864Z,88.61
2018-11-22T00:30:10.819Z,87.93
2018-11-22T00:33:01.081Z,87.01
2018-11-22T00:35:51.404Z,86.56
2018-11-22T00:38:42.051Z,86.67
2018-11-22T00:41:32.296Z,87.37
2018-11-22T00:44:22.562Z,87.52
2018-11-22T00:47:12.783Z,87.30
2018-11-22T00:50:03.042Z,87.64
2018-11-22T00:52:53.947Z,87.97
2018-11-22T00:55:44.185Z,86.85
2018-11-22T00:58:34.428Z,86.43
2018-11-22T01:01:24.684Z,86.84
2018-11-22T01:04:14.952Z,85.98
2018-11-22T01:07:05.208Z,86.61
2018-11-22T01:09:55.460Z,87.46
2018-11-22T01:12:46.653Z,87.11
2018-11-22T01:15:17.402Z,86.54
2018-11-22T01:18:06.855Z,86.48
2018-11-22T01:21:08.222Z,86.78
2018-11-22T01:26:23.600Z,87.39
2018-11-22T01:29:32.413Z,87.72
2018-11-22T01:32:22.924Z,88.08
2018-11-22T01:38:25.499Z,87.02
2018-11-22T01:41:15.737Z,87.29
2018-11-22T01:46:49.231Z,87.57
2018-11-22T01:49:39.478Z,88.20
2018-11-22T01:52:29.711Z,88.06
2018-11-22T01:55:21.244Z,87.94
2018-11-22T01:58:30.360Z,87.96
2018-11-22T02:01:20.618Z,88.34
2018-11-22T02:04:10.848Z,88.53
2018-11-22T02:07:01.133Z,88.05
2018-11-22T02:09:51.392Z,88.22
2018-11-22T02:12:41.688Z,88.30
2018-11-22T02:15:31.948Z,88.42
2018-11-22T02:18:22.181Z,87.85
2018-11-22T02:21:12.410Z,88.23
2018-11-22T02:24:02.724Z,88.59
2018-11-22T02:26:52.963Z,88.86
2018-11-22T02:29:43.206Z,89.27
2018-11-22T02:32:33.448Z,89.08
2018-11-22T02:35:23.873Z,89.36
2018-11-22T02:38:14.121Z,89.35
2018-11-22T02:41:04.365Z,89.25
2018-11-22T02:43:53.969Z,89.23
2018-11-22T02:46:24.548Z,89.22
2018-11-22T02:51:38.075Z,89.20
2018-11-22T02:54:28.383Z,89.27
2018-11-22T02:57:18.663Z,89.41
2018-11-22T03:00:47.327Z,89.44
2018-11-22T03:03:37.564Z,89.40
2018-11-22T03:06:08.133Z,89.17
2018-11-22T03:12:00.504Z,89.08
2018-11-22T03:14:32.059Z,89.21
2018-11-22T03:17:22.313Z,89.23
2018-11-22T03:20:11.663Z,89.14
2018-11-22T03:23:01.926Z,88.98
2018-11-22T03:25:52.638Z,88.91
2018-11-22T03:28:42.903Z,88.61
2018-11-22T03:37:27.369Z,88.51
2018-11-22T03:43:00.288Z,88.26
2018-11-22T03:45:50.955Z,88.26
2018-11-22T03:54:09.442Z,88.46
2018-11-22T03:56:59.694Z,88.42
2018-11-22T04:00:09.856Z,88.38
2018-11-22T04:05:44.277Z,88.33
2018-11-22T04:08:34.489Z,88.48
2018-11-22T04:11:24.699Z,88.64
2018-11-22T04:14:14.942Z,88.76
2018-11-22T04:17:06.347Z,89.10
2018-11-22T04:19:57.635Z,89.25
2018-11-22T04:22:28.407Z,88.92
2018-11-22T04:25:19.070Z,88.89
2018-11-22T04:27:49.641Z,88.61
2018-11-22T04:30:22.592Z,88.89
2018-11-22T04:33:12.766Z,88.87
2018-11-22T04:36:02.992Z,88.93
2018-11-22T04:39:11.832Z,89.07
2018-11-22T04:42:02.176Z,89.07
2018-11-22T04:44:52.392Z,89.04
2018-11-22T04:47:42.901Z,89.04
2018-11-22T04:50:35.347Z,88.95
2018-11-22T04:53:25.591Z,88.76
2018-11-22T04:56:34.406Z,88.86
2018-11-22T04:59:24.672Z,89.03
2018-11-22T05:02:15.529Z,88.95
2018-11-22T05:07:51.663Z,88.96
2018-11-22T05:10:41.876Z,88.71
2018-11-22T05:13:32.155Z,88.48
2018-11-22T05:16:03.174Z,88.94
2018-11-22T05:24:37.784Z,89.14
2018-11-22T05:27:28.804Z,89.14
2018-11-22T05:30:37.684Z,88.68
2018-11-22T05:33:27.941Z,88.85
2018-11-22T05:36:18.200Z,88.40
2018-11-22T05:39:10.169Z,87.97
2018-11-22T05:41:43.840Z,88.15
2018-11-22T05:44:49.907Z,88.39
2018-11-22T05:47:40.353Z,88.69
2018-11-22T05:50:31.691Z,88.88
2018-11-22T05:58:27.552Z,89.03
2018-11-22T06:06:22.820Z,89.09
2018-11-22T06:09:13.044Z,88.96
2018-11-22T06:12:03.321Z,88.91
2018-11-22T06:17:35.915Z,88.70
2018-11-22T06:20:27.521Z,88.77
2018-11-22T06:26:21.116Z,88.98
2018-11-22T06:31:53.902Z,89.35
2018-11-22T06:34:36.115Z,89.36
2018-11-22T06:37:07.436Z,89.36
2018-11-22T06:42:21.013Z,89.34
2018-11-22T06:45:14.048Z,89.46
2018-11-22T06:51:03.855Z,89.16
2018-11-22T06:56:39.047Z,89.16
2018-11-22T06:59:29.267Z,89.14
2018-11-22T07:02:20.194Z,89.04
2018-11-22T07:05:11.443Z,89.07
2018-11-22T07:08:01.719Z,89.14
2018-11-22T07:13:34.219Z,88.85
2018-11-22T07:16:35.836Z,88.84
2018-11-22T07:19:09.173Z,88.82
2018-11-22T07:21:59.726Z,88.74
2018-11-22T07:24:50.007Z,88.88
2018-11-22T07:27:40.326Z,89.02
2018-11-22T07:30:42.168Z,89.05
2018-11-22T07:33:25.312Z,88.91
2018-11-22T07:38:58.342Z,88.55
2018-11-22T07:41:49.571Z,88.30
2018-11-22T07:44:39.828Z,88.16
2018-11-22T07:47:30.081Z,88.25
2018-11-22T07:50:21.484Z,88.48
2018-11-22T07:53:11.765Z,88.59
2018-11-22T07:55:42.361Z,88.82
2018-11-22T08:01:36.640Z,89.04
2018-11-22T08:04:26.892Z,88.70
2018-11-22T08:06:57.475Z,88.97
2018-11-22T08:09:47.703Z,89.24
2018-11-22T08:12:38.004Z,89.26
2018-11-22T08:15:11.653Z,89.57
2018-11-22T08:20:45.346Z,89.91
2018-11-22T08:23:54.967Z,89.88
2018-11-22T08:26:45.230Z,90.18
2018-11-22T08:29:24.536Z,90.28
2018-11-22T08:32:14.811Z,89.77
2018-11-22T08:35:05.705Z,90.04
2018-11-22T08:37:55.961Z,89.98
2018-11-22T08:40:46.201Z,90.09
2018-11-22T08:46:38.413Z,90.19
2018-11-22T08:49:28.647Z,90.22
2018-11-22T08:52:19.348Z,90.05
2018-11-22T08:55:10.588Z,89.56
2018-11-22T09:00:43.599Z,89.46
2018-11-22T09:03:34.275Z,89.75
2018-11-22T09:06:24.509Z,89.14
2018-11-22T09:09:14.760Z,88.98
2018-11-22T09:11:45.351Z,88.94
2018-11-22T09:14:35.625Z,88.94
2018-11-22T09:20:33.314Z,88.84
2018-11-22T09:23:22.501Z,89.10
2018-11-22T09:26:12.807Z,89.12
2018-11-22T09:29:02.992Z,89.22
2018-11-22T09:35:20.031Z,88.44
2018-11-22T09:38:10.179Z,88.65
2018-11-22T09:41:19.664Z,87.81
2018-11-22T09:44:11.426Z,87.63
2018-11-22T09:47:01.727Z,87.24
2018-11-22T09:49:51.931Z,87.21
2018-11-22T09:52:43.426Z,86.46
2018-11-22T09:57:56.777Z,88.32
2018-11-22T10:00:46.991Z,88.38
2018-11-22T10:03:37.272Z,88.86
2018-11-22T10:06:27.488Z,88.37
2018-11-22T10:09:31.922Z,89.01
2018-11-22T10:12:12.018Z,89.32
2018-11-22T10:15:02.352Z,89.51
2018-11-22T10:17:49.557Z,89.11
2018-11-22T10:20:39.819Z,88.67
2018-11-22T10:29:01.632Z,87.09
2018-11-22T10:31:52.189Z,86.69
2018-11-22T10:34:24.987Z,87.54
2018-11-22T10:37:15.227Z,88.50
2018-11-22T10:40:06.703Z,89.01
2018-11-22T10:42:58.417Z,89.18
2018-11-22T10:48:30.083Z,89.70
2018-11-22T10:51:20.321Z,89.61
2018-11-22T10:54:10.587Z,89.54
2018-11-22T10:56:41.230Z,89.72
2018-11-22T11:02:32.025Z,89.16
2018-11-22T11:05:40.866Z,89.40
2018-11-22T11:08:31.800Z,89.15
2018-11-22T11:11:22.033Z,89.37
2018-11-22T11:14:12.302Z,89.32
2018-11-22T11:17:01.890Z,89.19
2018-11-22T11:19:52.176Z,89.20
2018-11-22T11:25:24.692Z,88.74
2018-11-22T11:27:55.275Z,86.41
2018-11-22T11:30:45.574Z,86.77
2018-11-22T11:33:35.786Z,86.41
2018-11-22T11:36:26.036Z,86.90
2018-11-22T11:39:16.238Z,87.12
2018-11-22T11:41:52.877Z,87.30
2018-11-22T11:44:43.102Z,87.37
2018-11-22T11:47:33.889Z,87.21
2018-11-22T11:50:05.440Z,87.35
2018-11-22T11:52:55.886Z,86.73
2018-11-22T11:55:46.205Z,86.01
2018-11-22T11:58:36.443Z,86.20
2018-11-22T12:04:10.480Z,86.91
2018-11-22T12:07:02.111Z,86.52
2018-11-22T12:09:56.232Z,86.62
2018-11-22T12:12:43.107Z,87.20
2018-11-22T12:15:33.339Z,87.78
2018-11-22T12:18:23.565Z,86.75
2018-11-22T12:21:13.809Z,86.92
2018-11-22T12:24:04.616Z,86.63
2018-11-22T12:32:39.078Z,86.81
2018-11-22T12:35:28.322Z,85.75
2018-11-22T12:38:37.187Z,87.01
2018-11-22T12:41:28.404Z,87.33
2018-11-22T12:47:01.548Z,88.04
2018-11-22T12:49:51.813Z,87.55
2018-11-22T12:52:42.108Z,87.05
2018-11-22T12:55:32.346Z,86.84
2018-11-22T12:58:22.596Z,87.77
2018-11-22T13:01:12.971Z,88.09
2018-11-22T13:04:03.224Z,88.32
2018-11-22T13:09:36.675Z,87.00
2018-11-22T13:12:26.905Z,85.75
2018-11-22T13:15:18.445Z,85.30
2018-11-22T13:18:08.687Z,86.23
2018-11-22T13:20:58.969Z,86.97
2018-11-22T13:23:49.233Z,87.44
2018-11-22T13:26:39.472Z,86.98
2018-11-22T13:32:12.684Z,86.53
2018-11-22T13:37:46.371Z,85.84
2018-11-22T13:40:42.228Z,86.58
2018-11-22T13:43:12.782Z,85.64
2018-11-22T13:45:43.747Z,85.27
2018-11-22T13:48:34.005Z,85.50
2018-11-22T13:51:24.259Z,85.52
2018-11-22T13:54:14.513Z,86.26
2018-11-22T13:57:04.898Z,86.16
2018-11-22T13:59:58.416Z,85.76
2018-11-22T14:02:25.912Z,86.55
2018-11-22T14:05:16.173Z,86.47
2018-11-22T14:08:06.417Z,85.46
2018-11-22T14:10:58.578Z,86.15
2018-11-22T14:13:46.957Z,85.92
2018-11-22T14:16:37.272Z,85.56
2018-11-22T14:19:07.913Z,85.67
2018-11-22T14:21:38.477Z,86.29
2018-11-22T14:24:28.724Z,86.84
2018-11-22T14:27:18.984Z,87.01
2018-11-22T14:30:11.197Z,87.38
2018-11-22T14:33:01.532Z,87.28
2018-11-22T14:38:36.055Z,86.64
2018-11-22T14:41:26.287Z,87.07
2018-11-22T14:44:16.612Z,87.25
2018-11-22T14:47:25.722Z,86.38
2018-11-22T14:50:35.856Z,86.01
2018-11-22T14:58:55.172Z,85.52
2018-11-22T15:01:45.960Z,85.44
2018-11-22T15:04:36.188Z,85.54
2018-11-22T15:07:28.795Z,86.02
2018-11-22T15:10:17.489Z,85.92
2018-11-22T15:15:51.154Z,86.72
2018-11-22T15:18:40.445Z,86.60
2018-11-22T15:21:31.011Z,85.92
2018-11-22T15:24:21.671Z,86.19
2018-11-22T15:27:12.204Z,85.41
2018-11-22T15:29:43.301Z,85.13
2018-11-22T15:32:33.853Z,85.32
2018-11-22T15:35:26.627Z,85.30
2018-11-22T15:37:57.279Z,85.32
2018-11-22T15:40:47.531Z,85.51
2018-11-22T15:46:20.380Z,85.65
2018-11-22T15:49:10.661Z,85.55
2018-11-22T15:52:00.909Z,85.45
2018-11-22T15:54:51.142Z,85.41
2018-11-22T15:57:42.679Z,85.21
2018-11-22T16:00:34.068Z,85.16
2018-11-22T16:06:07.506Z,85.27
2018-11-22T16:09:10.196Z,85.15
2018-11-22T16:11:42.376Z,85.32
2018-11-22T16:14:12.938Z,85.30
2018-11-22T16:16:43.533Z,83.95
2018-11-22T16:19:33.774Z,84.47
2018-11-22T16:22:24.001Z,84.75
2018-11-22T16:28:20.321Z,85.64
2018-11-22T16:31:10.600Z,85.88
2018-11-22T16:34:00.875Z,85.82
2018-11-22T16:36:51.189Z,85.59
2018-11-22T16:39:32.860Z,85.31
2018-11-22T16:42:04.733Z,84.51
2018-11-22T16:44:36.877Z,84.91
2018-11-22T16:47:07.485Z,85.11
2018-11-22T16:50:16.348Z,85.29
2018-11-22T16:53:07.071Z,85.56
2018-11-22T16:55:57.280Z,85.47
2018-11-22T17:01:31.301Z,85.30
2018-11-22T17:04:24.139Z,85.24
2018-11-22T17:07:14.400Z,85.33
2018-11-22T17:10:25.138Z,85.43
2018-11-22T17:13:15.375Z,85.41
2018-11-22T17:16:05.647Z,85.39
2018-11-22T17:18:55.896Z,85.71
2018-11-22T17:21:46.143Z,86.23
2018-11-22T17:24:36.455Z,86.16
2018-11-22T17:27:26.286Z,86.33
2018-11-22T17:33:00.946Z,86.65
2018-11-22T17:35:51.196Z,86.18
2018-11-22T17:41:23.373Z,85.41
2018-11-22T17:44:13.612Z,85.93
2018-11-22T17:50:01.586Z,86.88
2018-11-22T17:52:51.878Z,87.19
2018-11-22T17:55:42.208Z,87.21
2018-11-22T17:58:32.428Z,87.57
2018-11-22T18:01:22.692Z,88.07
2018-11-22T18:04:12.901Z,87.88
2018-11-22T18:07:04.159Z,86.16
2018-11-22T18:09:54.368Z,86.20
2018-11-22T18:12:45.575Z,87.01
2018-11-22T18:15:34.745Z,87.26
2018-11-22T18:18:05.346Z,87.07
2018-11-22T18:20:55.633Z,87.09
2018-11-22T18:23:45.887Z,87.29
2018-11-22T18:29:20.880Z,87.42
2018-11-22T18:31:49.270Z,87.62
2018-11-22T18:34:20.050Z,87.38
2018-11-22T18:37:10.341Z,87.06
2018-11-22T18:40:01.086Z,87.03
2018-11-22T18:42:31.647Z,87.04
2018-11-22T18:45:57.695Z,87.22
2018-11-22T18:48:30.411Z,87.69
2018-11-22T18:51:03.143Z,87.13
2018-11-22T18:53:33.773Z,87.10
2018-11-22T18:56:03.191Z,87.64
2018-11-22T18:58:37.174Z,87.84
2018-11-22T19:01:06.819Z,86.84
2018-11-22T19:03:38.286Z,87.91
2018-11-22T19:06:09.195Z,88.00
2018-11-22T19:08:44.150Z,88.30
2018-11-22T19:11:15.363Z,87.71
2018-11-22T19:13:47.414Z,88.73
2018-11-22T19:16:18.338Z,89.10
2018-11-22T19:18:49.443Z,88.70
2018-11-22T19:21:20.464Z,87.91
2018-11-22T19:23:52.464Z,86.99
2018-11-22T19:26:22.664Z,87.47
2018-11-22T19:28:53.207Z,87.68
2018-11-22T19:34:22.811Z,87.22
2018-11-22T19:36:54.368Z,88.21
2018-11-22T19:39:24.479Z,88.24
2018-11-22T19:41:54.469Z,88.24
2018-11-22T19:44:25.184Z,88.20
2018-11-22T19:47:05.586Z,88.25
2018-11-22T19:49:38.627Z,88.71
2018-11-22T19:52:10.751Z,88.09
2018-11-22T19:54:41.344Z,88.56
2018-11-22T19:57:11.559Z,88.12
2018-11-22T19:59:41.566Z,89.01
2018-11-22T20:02:12.215Z,88.49
2018-11-22T20:04:43.051Z,87.60
2018-11-22T20:07:12.706Z,87.91
2018-11-22T20:09:43.223Z,87.77
2018-11-22T20:12:12.578Z,87.87
2018-11-22T20:14:46.642Z,88.65
2018-11-22T20:17:16.678Z,87.64
2018-11-22T20:19:48.806Z,87.13
2018-11-22T20:22:20.699Z,87.61
2018-11-22T20:24:50.575Z,87.59
2018-11-22T20:27:21.720Z,88.03
2018-11-22T20:29:54.570Z,87.10
2018-11-22T20:32:26.695Z,87.19
2018-11-22T20:34:58.686Z,87.07
2018-11-22T20:37:31.943Z,87.99
2018-11-22T20:40:01.933Z,87.74
2018-11-22T20:42:38.351Z,87.62
2018-11-22T20:45:11.941Z,87.07
2018-11-22T20:47:42.632Z,87.17
2018-11-22T20:50:15.088Z,86.98
2018-11-22T20:52:45.691Z,86.88
2018-11-22T20:55:35.535Z,87.30
2018-11-22T20:58:05.792Z,87.09
2018-11-22T21:00:37.784Z,87.49
2018-11-22T21:03:07.207Z,87.16
2018-11-22T21:05:38.858Z,86.46
2018-11-22T21:08:09.854Z,86.27
2018-11-22T21:10:45.667Z,86.95
2018-11-22T21:13:17.720Z,87.15
2018-11-22T21:15:48.904Z,86.24
2018-11-22T21:18:25.890Z,86.16
2018-11-22T21:20:56.845Z,86.19
2018-11-22T21:23:31.684Z,86.34
2018-11-22T21:26:03.019Z,87.04
2018-11-22T21:28:33.020Z,87.35
2018-11-22T21:31:03.108Z,87.19
2018-11-22T21:33:34.710Z,87.49
2018-11-22T21:36:05.222Z,86.85
2018-11-22T21:38:35.041Z,85.46
2018-11-22T21:41:05.157Z,86.74
2018-11-22T21:43:47.336Z,86.28
2018-11-22T21:46:22.348Z,86.92
2018-11-22T21:54:53.266Z,86.78
2018-11-22T21:57:25.336Z,86.46
2018-11-22T21:59:55.045Z,85.93
2018-11-22T22:02:26.124Z,85.98
2018-11-22T22:04:55.996Z,86.13
2018-11-22T22:07:29.153Z,86.58
2018-11-22T22:09:59.956Z,86.35
2018-11-22T22:12:36.485Z,86.31
2018-11-22T22:15:09.951Z,85.29
2018-11-22T22:17:43.005Z,85.75
2018-11-22T22:20:19.301Z,85.68
2018-11-22T22:22:49.192Z,85.21
2018-11-22T22:25:20.503Z,85.47
2018-11-22T22:27:50.842Z,85.17
2018-11-22T22:30:26.594Z,85.20
2018-11-22T22:32:57.524Z,85.00
2018-11-22T22:35:27.287Z,84.91
2018-11-22T22:37:57.203Z,84.85
2018-11-22T22:40:28.234Z,85.51
2018-11-22T22:43:00.397Z,84.94
2018-11-22T22:45:31.543Z,84.33
2018-11-22T22:48:01.227Z,84.60
2018-11-22T22:50:33.740Z,84.45
2018-11-22T22:53:09.400Z,84.46
2018-11-22T22:55:41.366Z,85.23
2018-11-22T22:58:13.629Z,84.44
2018-11-22T23:00:49.582Z,85.51
2018-11-22T23:03:21.221Z,85.32
2018-11-22T23:05:54.384Z,85.25
2018-11-22T23:08:24.769Z,85.47
2018-11-22T23:10:55.555Z,85.69
2018-11-22T23:13:25.436Z,85.91
2018-11-22T23:15:59.367Z,85.32
2018-11-22T23:18:29.369Z,86.33
2018-11-22T23:20:59.511Z,85.83
2018-11-22T23:23:29.513Z,86.43
2018-11-22T23:26:00.515Z,85.95
2018-11-22T23:28:30.359Z,85.80
2018-11-22T23:31:03.324Z,85.60
2018-11-22T23:33:34.520Z,86.45
2018-11-22T23:36:05.138Z,86.13
2018-11-22T23:38:34.511Z,86.44
2018-11-22T23:41:05.837Z,86.12
2018-11-22T23:43:35.670Z,85.88
2018-11-22T23:46:05.963Z,86.54
2018-11-22T23:48:36.760Z,85.82
2018-11-22T23:51:06.668Z,86.50
2018-11-22T23:53:37.490Z,85.64
2018-11-22T23:56:06.876Z,86.60
2018-11-22T23:58:36.653Z,86.35
